sensor_id;sensor_type;location;lat;lon;timestamp;P1;P2;P0
75960;PMS7003;64644;48.914;2.254;2023-08-17T00:00:09;12.00;12.00;10.50
75960;PMS7003;64644;48.914;2.254;2023-08-17T00:02:38;11.25;11.25;9.00
75960;PMS7003;64644;48.914;2.254;2023-08-17T00:05:04;10.25;10.25;8.50
75960;PMS7003;64644;48.914;2.254;2023-08-17T00:07:31;12.00;12.00;9.00
75960;PMS7003;64644;48.914;2.254;2023-08-17T00:09:56;15.00;14.00;10.50
75960;PMS7003;64644;48.914;2.254;2023-08-17T00:12:21;15.00;14.00;10.25
75960;PMS7003;64644;48.914;2.254;2023-08-17T00:14:47;13.00;13.00;9.50
75960;PMS7003;64644;48.914;2.254;2023-08-17T00:17:12;12.75;12.50;10.00
75960;PMS7003;64644;48.914;2.254;2023-08-17T00:19:37;11.00;11.00;9.00
75960;PMS7003;64644;48.914;2.254;2023-08-17T00:22:03;13.00;13.00;9.75
75960;PMS7003;64644;48.914;2.254;2023-08-17T00:24:28;12.50;12.50;10.25
75960;PMS7003;64644;48.914;2.254;2023-08-17T00:26:54;11.25;11.25;9.00
75960;PMS7003;64644;48.914;2.254;2023-08-17T00:29:19;12.00;12.00;8.00
75960;PMS7003;64644;48.914;2.254;2023-08-17T00:31:44;11.00;10.75;9.00
75960;PMS7003;64644;48.914;2.254;2023-08-17T00:34:10;15.00;13.00;10.25
75960;PMS7003;64644;48.914;2.254;2023-08-17T00:36:35;12.50;12.50;9.50
75960;PMS7003;64644;48.914;2.254;2023-08-17T00:39:01;10.50;8.50;7.00
75960;PMS7003;64644;48.914;2.254;2023-08-17T00:41:26;14.00;12.00;10.00
75960;PMS7003;64644;48.914;2.254;2023-08-17T00:43:53;13.00;13.00;10.00
75960;PMS7003;64644;48.914;2.254;2023-08-17T00:46:19;14.25;12.75;9.00
75960;PMS7003;64644;48.914;2.254;2023-08-17T00:48:47;12.50;12.50;9.25
75960;PMS7003;64644;48.914;2.254;2023-08-17T00:51:13;15.25;14.00;9.75
75960;PMS7003;64644;48.914;2.254;2023-08-17T00:53:38;10.00;10.00;8.00
75960;PMS7003;64644;48.914;2.254;2023-08-17T00:56:04;8.25;8.25;7.25
75960;PMS7003;64644;48.914;2.254;2023-08-17T00:58:30;11.00;10.00;8.00
75960;PMS7003;64644;48.914;2.254;2023-08-17T01:00:56;11.25;11.00;9.00
75960;PMS7003;64644;48.914;2.254;2023-08-17T01:03:21;14.00;13.25;10.00
75960;PMS7003;64644;48.914;2.254;2023-08-17T01:05:48;10.00;10.00;8.00
75960;PMS7003;64644;48.914;2.254;2023-08-17T01:08:13;13.75;12.50;9.75
75960;PMS7003;64644;48.914;2.254;2023-08-17T01:13:44;11.50;11.25;9.25
75960;PMS7003;64644;48.914;2.254;2023-08-17T01:16:21;11.00;11.00;8.50
75960;PMS7003;64644;48.914;2.254;2023-08-17T01:18:52;12.00;12.00;8.25
75960;PMS7003;64644;48.914;2.254;2023-08-17T01:21:20;13.25;12.25;9.00
75960;PMS7003;64644;48.914;2.254;2023-08-17T01:23:48;12.50;12.50;10.00
75960;PMS7003;64644;48.914;2.254;2023-08-17T01:26:14;10.00;9.25;7.50
75960;PMS7003;64644;48.914;2.254;2023-08-17T01:28:42;11.75;10.00;8.00
75960;PMS7003;64644;48.914;2.254;2023-08-17T01:31:11;14.00;12.75;9.00
75960;PMS7003;64644;48.914;2.254;2023-08-17T01:33:56;11.00;11.00;8.50
75960;PMS7003;64644;48.914;2.254;2023-08-17T01:36:32;12.00;12.00;9.25
75960;PMS7003;64644;48.914;2.254;2023-08-17T01:39:02;15.25;11.75;9.00
75960;PMS7003;64644;48.914;2.254;2023-08-17T01:41:29;12.75;12.75;9.00
75960;PMS7003;64644;48.914;2.254;2023-08-17T01:43:55;16.00;13.00;11.00
75960;PMS7003;64644;48.914;2.254;2023-08-17T01:46:22;12.50;11.25;10.25
75960;PMS7003;64644;48.914;2.254;2023-08-17T01:48:47;14.00;14.00;9.00
75960;PMS7003;64644;48.914;2.254;2023-08-17T01:51:17;13.50;13.50;10.00
75960;PMS7003;64644;48.914;2.254;2023-08-17T01:53:46;12.75;12.75;7.75
75960;PMS7003;64644;48.914;2.254;2023-08-17T01:56:12;16.50;15.25;12.00
75960;PMS7003;64644;48.914;2.254;2023-08-17T01:58:38;15.00;14.00;11.00
75960;PMS7003;64644;48.914;2.254;2023-08-17T02:01:03;13.75;13.75;11.00
75960;PMS7003;64644;48.914;2.254;2023-08-17T02:03:29;14.00;13.25;11.00
75960;PMS7003;64644;48.914;2.254;2023-08-17T02:05:57;16.50;15.00;11.25
75960;PMS7003;64644;48.914;2.254;2023-08-17T02:08:26;18.50;15.50;11.00
75960;PMS7003;64644;48.914;2.254;2023-08-17T02:10:51;17.50;14.75;11.00
75960;PMS7003;64644;48.914;2.254;2023-08-17T02:13:17;15.25;13.25;11.00
75960;PMS7003;64644;48.914;2.254;2023-08-17T02:15:43;15.00;14.00;10.00
75960;PMS7003;64644;48.914;2.254;2023-08-17T02:18:09;15.75;15.25;12.00
75960;PMS7003;64644;48.914;2.254;2023-08-17T02:20:34;15.50;15.00;11.00
75960;PMS7003;64644;48.914;2.254;2023-08-17T02:23:00;16.50;14.75;11.00
75960;PMS7003;64644;48.914;2.254;2023-08-17T02:25:26;14.75;14.75;10.75
75960;PMS7003;64644;48.914;2.254;2023-08-17T02:27:52;16.00;16.00;11.00
75960;PMS7003;64644;48.914;2.254;2023-08-17T02:30:18;17.00;14.00;11.25
75960;PMS7003;64644;48.914;2.254;2023-08-17T02:32:43;12.25;12.25;9.00
75960;PMS7003;64644;48.914;2.254;2023-08-17T02:35:09;14.25;13.50;10.00
75960;PMS7003;64644;48.914;2.254;2023-08-17T02:37:35;14.00;14.00;10.75
75960;PMS7003;64644;48.914;2.254;2023-08-17T02:40:00;12.50;12.50;10.00
75960;PMS7003;64644;48.914;2.254;2023-08-17T02:42:25;16.25;16.25;11.00
75960;PMS7003;64644;48.914;2.254;2023-08-17T02:44:51;17.75;16.75;11.00
75960;PMS7003;64644;48.914;2.254;2023-08-17T02:47:16;15.75;12.50;10.00
75960;PMS7003;64644;48.914;2.254;2023-08-17T02:49:41;15.25;15.00;11.75
75960;PMS7003;64644;48.914;2.254;2023-08-17T02:52:07;17.00;16.00;11.00
75960;PMS7003;64644;48.914;2.254;2023-08-17T02:54:32;16.25;15.00;10.75
75960;PMS7003;64644;48.914;2.254;2023-08-17T02:56:58;18.00;16.00;13.00
75960;PMS7003;64644;48.914;2.254;2023-08-17T02:59:24;17.50;16.50;12.00
75960;PMS7003;64644;48.914;2.254;2023-08-17T03:01:49;16.50;14.50;11.25
75960;PMS7003;64644;48.914;2.254;2023-08-17T03:04:15;13.50;13.25;10.00
75960;PMS7003;64644;48.914;2.254;2023-08-17T03:06:40;13.50;13.00;9.50
75960;PMS7003;64644;48.914;2.254;2023-08-17T03:09:05;13.00;13.00;10.75
75960;PMS7003;64644;48.914;2.254;2023-08-17T03:11:31;18.75;18.75;13.00
75960;PMS7003;64644;48.914;2.254;2023-08-17T03:13:57;12.00;12.00;8.75
75960;PMS7003;64644;48.914;2.254;2023-08-17T03:16:25;20.00;18.75;11.50
75960;PMS7003;64644;48.914;2.254;2023-08-17T03:18:52;15.50;14.75;11.25
75960;PMS7003;64644;48.914;2.254;2023-08-17T03:21:17;14.75;14.75;11.25
75960;PMS7003;64644;48.914;2.254;2023-08-17T03:23:43;16.75;16.50;12.50
75960;PMS7003;64644;48.914;2.254;2023-08-17T03:26:09;16.00;16.00;11.00
75960;PMS7003;64644;48.914;2.254;2023-08-17T03:28:34;17.00;16.00;12.00
75960;PMS7003;64644;48.914;2.254;2023-08-17T03:31:00;15.75;14.25;11.25
75960;PMS7003;64644;48.914;2.254;2023-08-17T03:33:27;18.00;18.00;12.00
75960;PMS7003;64644;48.914;2.254;2023-08-17T03:35:52;18.50;18.50;13.50
75960;PMS7003;64644;48.914;2.254;2023-08-17T03:38:17;17.75;17.00;11.75
75960;PMS7003;64644;48.914;2.254;2023-08-17T03:40:43;15.75;15.25;11.50
75960;PMS7003;64644;48.914;2.254;2023-08-17T03:43:08;15.50;15.50;11.25
75960;PMS7003;64644;48.914;2.254;2023-08-17T03:45:33;14.50;14.50;11.25
75960;PMS7003;64644;48.914;2.254;2023-08-17T03:47:59;16.75;15.00;11.75
75960;PMS7003;64644;48.914;2.254;2023-08-17T03:50:25;19.50;18.75;14.00
75960;PMS7003;64644;48.914;2.254;2023-08-17T03:52:52;19.00;18.00;12.50
75960;PMS7003;64644;48.914;2.254;2023-08-17T03:55:18;20.75;18.75;13.00
75960;PMS7003;64644;48.914;2.254;2023-08-17T03:57:43;18.00;16.50;12.50
75960;PMS7003;64644;48.914;2.254;2023-08-17T04:00:08;21.75;20.75;13.75
75960;PMS7003;64644;48.914;2.254;2023-08-17T04:02:35;16.00;16.00;11.75
75960;PMS7003;64644;48.914;2.254;2023-08-17T04:05:00;20.75;17.00;12.50
75960;PMS7003;64644;48.914;2.254;2023-08-17T04:07:26;17.00;17.00;13.25
75960;PMS7003;64644;48.914;2.254;2023-08-17T04:09:51;19.25;16.75;12.25
75960;PMS7003;64644;48.914;2.254;2023-08-17T04:12:17;20.75;18.75;12.75
75960;PMS7003;64644;48.914;2.254;2023-08-17T04:14:42;21.00;19.00;13.50
75960;PMS7003;64644;48.914;2.254;2023-08-17T04:17:08;19.25;17.25;13.00
75960;PMS7003;64644;48.914;2.254;2023-08-17T04:19:33;18.75;18.00;13.50
75960;PMS7003;64644;48.914;2.254;2023-08-17T04:21:58;16.25;15.50;11.50
75960;PMS7003;64644;48.914;2.254;2023-08-17T04:24:24;19.50;19.25;13.50
75960;PMS7003;64644;48.914;2.254;2023-08-17T04:26:49;25.50;22.50;14.25
75960;PMS7003;64644;48.914;2.254;2023-08-17T04:29:15;18.75;17.75;13.75
75960;PMS7003;64644;48.914;2.254;2023-08-17T04:31:40;23.75;22.00;16.00
75960;PMS7003;64644;48.914;2.254;2023-08-17T04:34:06;22.75;21.75;14.00
75960;PMS7003;64644;48.914;2.254;2023-08-17T04:36:31;22.75;22.00;15.00
75960;PMS7003;64644;48.914;2.254;2023-08-17T04:38:56;22.50;21.50;13.00
75960;PMS7003;64644;48.914;2.254;2023-08-17T04:41:22;19.50;19.00;12.75
75960;PMS7003;64644;48.914;2.254;2023-08-17T04:43:47;25.25;25.25;17.00
75960;PMS7003;64644;48.914;2.254;2023-08-17T04:46:14;22.25;21.75;15.50
75960;PMS7003;64644;48.914;2.254;2023-08-17T04:48:40;20.50;18.75;13.75
75960;PMS7003;64644;48.914;2.254;2023-08-17T04:51:05;20.50;19.25;13.75
75960;PMS7003;64644;48.914;2.254;2023-08-17T04:53:30;20.50;20.00;14.00
75960;PMS7003;64644;48.914;2.254;2023-08-17T04:55:56;22.25;21.25;13.00
75960;PMS7003;64644;48.914;2.254;2023-08-17T04:58:21;22.25;21.00;15.50
75960;PMS7003;64644;48.914;2.254;2023-08-17T05:00:47;21.50;21.25;12.50
75960;PMS7003;64644;48.914;2.254;2023-08-17T05:03:13;22.75;22.25;15.00
75960;PMS7003;64644;48.914;2.254;2023-08-17T05:05:38;25.25;21.50;13.75
75960;PMS7003;64644;48.914;2.254;2023-08-17T05:08:03;20.75;20.00;15.00
75960;PMS7003;64644;48.914;2.254;2023-08-17T05:10:29;22.75;21.75;16.00
75960;PMS7003;64644;48.914;2.254;2023-08-17T05:12:54;23.25;22.00;15.50
75960;PMS7003;64644;48.914;2.254;2023-08-17T05:15:20;25.75;23.50;14.50
75960;PMS7003;64644;48.914;2.254;2023-08-17T05:17:45;21.00;19.25;13.75
75960;PMS7003;64644;48.914;2.254;2023-08-17T05:20:11;22.75;22.75;15.00
75960;PMS7003;64644;48.914;2.254;2023-08-17T05:22:38;26.00;22.00;15.25
75960;PMS7003;64644;48.914;2.254;2023-08-17T05:25:03;28.75;26.50;16.75
75960;PMS7003;64644;48.914;2.254;2023-08-17T05:27:29;25.25;23.25;16.00
75960;PMS7003;64644;48.914;2.254;2023-08-17T05:29:54;24.00;23.50;15.50
75960;PMS7003;64644;48.914;2.254;2023-08-17T05:32:20;24.25;21.75;14.75
75960;PMS7003;64644;48.914;2.254;2023-08-17T05:34:46;24.00;23.00;13.00
75960;PMS7003;64644;48.914;2.254;2023-08-17T05:37:12;26.50;25.50;18.50
75960;PMS7003;64644;48.914;2.254;2023-08-17T05:39:37;27.75;23.75;15.50
75960;PMS7003;64644;48.914;2.254;2023-08-17T05:42:04;26.25;25.00;17.50
75960;PMS7003;64644;48.914;2.254;2023-08-17T05:44:29;26.00;26.00;17.25
75960;PMS7003;64644;48.914;2.254;2023-08-17T05:46:55;22.25;22.25;15.50
75960;PMS7003;64644;48.914;2.254;2023-08-17T05:49:20;23.25;23.25;17.50
75960;PMS7003;64644;48.914;2.254;2023-08-17T05:51:45;26.50;24.50;18.25
75960;PMS7003;64644;48.914;2.254;2023-08-17T05:54:11;25.00;24.75;18.50
75960;PMS7003;64644;48.914;2.254;2023-08-17T05:56:37;34.00;27.50;19.50
75960;PMS7003;64644;48.914;2.254;2023-08-17T05:59:02;33.50;30.25;19.50
75960;PMS7003;64644;48.914;2.254;2023-08-17T06:01:28;28.50;27.75;20.00
75960;PMS7003;64644;48.914;2.254;2023-08-17T06:03:53;29.00;26.75;17.25
75960;PMS7003;64644;48.914;2.254;2023-08-17T06:06:18;26.50;24.25;15.50
75960;PMS7003;64644;48.914;2.254;2023-08-17T06:08:44;31.50;29.00;18.50
75960;PMS7003;64644;48.914;2.254;2023-08-17T06:11:09;28.50;25.25;16.50
75960;PMS7003;64644;48.914;2.254;2023-08-17T06:13:34;31.00;30.25;20.00
75960;PMS7003;64644;48.914;2.254;2023-08-17T06:16:00;30.50;29.25;20.25
75960;PMS7003;64644;48.914;2.254;2023-08-17T06:18:26;30.50;27.25;18.00
75960;PMS7003;64644;48.914;2.254;2023-08-17T06:20:51;30.50;27.00;17.25
75960;PMS7003;64644;48.914;2.254;2023-08-17T06:23:18;27.50;25.75;17.00
75960;PMS7003;64644;48.914;2.254;2023-08-17T06:25:45;28.00;28.00;18.75
75960;PMS7003;64644;48.914;2.254;2023-08-17T06:28:10;29.75;26.75;19.75
75960;PMS7003;64644;48.914;2.254;2023-08-17T06:30:35;27.75;27.00;19.00
75960;PMS7003;64644;48.914;2.254;2023-08-17T06:33:01;28.00;28.00;17.75
75960;PMS7003;64644;48.914;2.254;2023-08-17T06:35:26;27.25;25.50;17.75
75960;PMS7003;64644;48.914;2.254;2023-08-17T06:37:52;27.75;26.00;18.75
75960;PMS7003;64644;48.914;2.254;2023-08-17T06:40:20;30.25;28.75;19.25
75960;PMS7003;64644;48.914;2.254;2023-08-17T06:42:46;32.00;28.75;16.75
75960;PMS7003;64644;48.914;2.254;2023-08-17T06:45:11;28.75;27.50;19.25
75960;PMS7003;64644;48.914;2.254;2023-08-17T06:47:36;32.25;29.75;21.00
75960;PMS7003;64644;48.914;2.254;2023-08-17T06:50:02;32.50;31.00;20.75
75960;PMS7003;64644;48.914;2.254;2023-08-17T06:52:28;31.50;30.25;19.50
75960;PMS7003;64644;48.914;2.254;2023-08-17T06:54:53;33.50;30.00;20.75
75960;PMS7003;64644;48.914;2.254;2023-08-17T06:57:19;32.25;31.00;21.00
75960;PMS7003;64644;48.914;2.254;2023-08-17T06:59:46;33.00;31.00;21.00
75960;PMS7003;64644;48.914;2.254;2023-08-17T07:02:12;29.00;26.25;19.75
75960;PMS7003;64644;48.914;2.254;2023-08-17T07:04:37;34.50;30.75;21.75
75960;PMS7003;64644;48.914;2.254;2023-08-17T07:07:02;34.00;31.00;21.00
75960;PMS7003;64644;48.914;2.254;2023-08-17T07:09:28;31.75;31.00;20.25
75960;PMS7003;64644;48.914;2.254;2023-08-17T07:11:53;35.00;31.50;18.75
75960;PMS7003;64644;48.914;2.254;2023-08-17T07:14:18;35.25;33.00;20.00
75960;PMS7003;64644;48.914;2.254;2023-08-17T07:16:44;42.25;33.75;21.75
75960;PMS7003;64644;48.914;2.254;2023-08-17T07:19:09;33.25;30.75;20.25
75960;PMS7003;64644;48.914;2.254;2023-08-17T07:21:35;36.75;33.00;21.00
75960;PMS7003;64644;48.914;2.254;2023-08-17T07:24:10;32.50;30.75;20.50
75960;PMS7003;64644;48.914;2.254;2023-08-17T07:26:36;34.25;31.75;21.00
75960;PMS7003;64644;48.914;2.254;2023-08-17T07:29:02;34.75;31.00;21.00
75960;PMS7003;64644;48.914;2.254;2023-08-17T07:31:27;35.25;33.00;21.50
75960;PMS7003;64644;48.914;2.254;2023-08-17T07:33:52;28.00;25.50;17.25
75960;PMS7003;64644;48.914;2.254;2023-08-17T07:36:18;32.75;30.50;20.00
75960;PMS7003;64644;48.914;2.254;2023-08-17T07:38:43;32.25;29.75;20.00
75960;PMS7003;64644;48.914;2.254;2023-08-17T07:41:08;29.25;27.50;18.75
75960;PMS7003;64644;48.914;2.254;2023-08-17T07:43:34;30.25;28.75;19.75
75960;PMS7003;64644;48.914;2.254;2023-08-17T07:45:59;33.50;31.00;20.25
75960;PMS7003;64644;48.914;2.254;2023-08-17T07:48:24;31.75;29.50;18.25
75960;PMS7003;64644;48.914;2.254;2023-08-17T07:50:50;30.25;28.25;19.75
75960;PMS7003;64644;48.914;2.254;2023-08-17T07:53:16;29.75;29.00;18.00
75960;PMS7003;64644;48.914;2.254;2023-08-17T07:55:42;29.00;27.25;18.00
75960;PMS7003;64644;48.914;2.254;2023-08-17T07:58:07;30.25;29.75;19.75
75960;PMS7003;64644;48.914;2.254;2023-08-17T08:00:33;28.00;27.00;19.50
75960;PMS7003;64644;48.914;2.254;2023-08-17T08:02:58;31.50;28.25;18.75
75960;PMS7003;64644;48.914;2.254;2023-08-17T08:05:23;30.00;26.25;18.00
75960;PMS7003;64644;48.914;2.254;2023-08-17T08:07:49;29.50;28.50;17.75
75960;PMS7003;64644;48.914;2.254;2023-08-17T08:10:15;32.50;29.00;18.50
75960;PMS7003;64644;48.914;2.254;2023-08-17T08:12:40;29.50;28.75;18.00
75960;PMS7003;64644;48.914;2.254;2023-08-17T08:15:05;31.25;29.75;20.00
75960;PMS7003;64644;48.914;2.254;2023-08-17T08:17:31;30.00;29.25;19.00
75960;PMS7003;64644;48.914;2.254;2023-08-17T08:19:56;28.00;24.75;17.00
75960;PMS7003;64644;48.914;2.254;2023-08-17T08:22:23;35.75;32.25;20.75
75960;PMS7003;64644;48.914;2.254;2023-08-17T08:24:48;27.25;26.00;18.75
75960;PMS7003;64644;48.914;2.254;2023-08-17T08:27:13;34.25;31.50;20.00
75960;PMS7003;64644;48.914;2.254;2023-08-17T08:29:39;28.25;26.75;17.25
75960;PMS7003;64644;48.914;2.254;2023-08-17T08:32:04;29.50;27.00;19.00
75960;PMS7003;64644;48.914;2.254;2023-08-17T08:34:30;31.00;27.50;19.00
75960;PMS7003;64644;48.914;2.254;2023-08-17T08:36:55;28.25;28.25;20.25
75960;PMS7003;64644;48.914;2.254;2023-08-17T08:39:20;27.75;26.25;16.00
75960;PMS7003;64644;48.914;2.254;2023-08-17T08:41:46;28.00;27.50;19.00
75960;PMS7003;64644;48.914;2.254;2023-08-17T08:44:11;35.75;32.00;21.00
75960;PMS7003;64644;48.914;2.254;2023-08-17T08:46:37;30.50;29.75;19.00
75960;PMS7003;64644;48.914;2.254;2023-08-17T08:49:09;29.50;28.00;20.00
75960;PMS7003;64644;48.914;2.254;2023-08-17T08:51:36;26.50;25.75;18.00
75960;PMS7003;64644;48.914;2.254;2023-08-17T08:54:06;28.00;28.00;20.00
75960;PMS7003;64644;48.914;2.254;2023-08-17T08:56:36;30.75;25.00;17.75
75960;PMS7003;64644;48.914;2.254;2023-08-17T08:59:03;27.75;27.75;18.25
75960;PMS7003;64644;48.914;2.254;2023-08-17T09:01:30;28.50;25.50;16.25
75960;PMS7003;64644;48.914;2.254;2023-08-17T09:03:58;24.50;23.00;17.50
75960;PMS7003;64644;48.914;2.254;2023-08-17T09:06:31;29.00;27.00;19.25
75960;PMS7003;64644;48.914;2.254;2023-08-17T09:08:58;25.00;24.25;18.50
75960;PMS7003;64644;48.914;2.254;2023-08-17T09:11:26;28.25;27.75;19.50
75960;PMS7003;64644;48.914;2.254;2023-08-17T09:13:52;28.50;26.50;18.00
75960;PMS7003;64644;48.914;2.254;2023-08-17T09:16:18;31.50;29.75;18.25
75960;PMS7003;64644;48.914;2.254;2023-08-17T09:18:43;27.00;26.00;18.50
75960;PMS7003;64644;48.914;2.254;2023-08-17T09:21:10;28.25;27.25;18.00
75960;PMS7003;64644;48.914;2.254;2023-08-17T09:23:49;32.50;28.50;20.00
75960;PMS7003;64644;48.914;2.254;2023-08-17T09:26:19;28.00;25.50;18.00
75960;PMS7003;64644;48.914;2.254;2023-08-17T09:28:51;29.50;26.50;18.25
75960;PMS7003;64644;48.914;2.254;2023-08-17T09:31:23;25.75;25.50;17.75
75960;PMS7003;64644;48.914;2.254;2023-08-17T09:33:49;27.00;24.00;18.00
75960;PMS7003;64644;48.914;2.254;2023-08-17T09:36:15;26.25;25.75;17.50
75960;PMS7003;64644;48.914;2.254;2023-08-17T09:38:45;22.25;22.25;16.25
75960;PMS7003;64644;48.914;2.254;2023-08-17T09:41:13;25.25;24.25;17.25
75960;PMS7003;64644;48.914;2.254;2023-08-17T09:43:38;25.25;24.50;15.75
75960;PMS7003;64644;48.914;2.254;2023-08-17T09:46:04;25.50;24.50;14.75
75960;PMS7003;64644;48.914;2.254;2023-08-17T09:48:29;27.75;22.50;17.25
75960;PMS7003;64644;48.914;2.254;2023-08-17T09:50:56;23.75;23.00;15.50
75960;PMS7003;64644;48.914;2.254;2023-08-17T09:53:23;22.75;22.75;15.00
75960;PMS7003;64644;48.914;2.254;2023-08-17T09:55:49;26.25;24.50;17.25
75960;PMS7003;64644;48.914;2.254;2023-08-17T09:58:15;27.25;24.50;17.75
75960;PMS7003;64644;48.914;2.254;2023-08-17T10:00:44;28.00;26.25;16.75
75960;PMS7003;64644;48.914;2.254;2023-08-17T10:03:11;24.25;22.50;15.25
75960;PMS7003;64644;48.914;2.254;2023-08-17T10:05:40;26.00;23.75;15.50
75960;PMS7003;64644;48.914;2.254;2023-08-17T10:08:08;26.25;24.25;15.75
75960;PMS7003;64644;48.914;2.254;2023-08-17T10:10:37;27.00;25.00;16.75
75960;PMS7003;64644;48.914;2.254;2023-08-17T10:16:08;21.75;20.25;15.75
75960;PMS7003;64644;48.914;2.254;2023-08-17T10:21:20;21.75;20.25;14.25
75960;PMS7003;64644;48.914;2.254;2023-08-17T10:23:57;18.25;18.25;13.25
75960;PMS7003;64644;48.914;2.254;2023-08-17T10:26:23;16.50;16.50;12.25
75960;PMS7003;64644;48.914;2.254;2023-08-17T10:28:51;23.75;21.00;14.00
75960;PMS7003;64644;48.914;2.254;2023-08-17T10:31:16;18.50;16.50;13.00
75960;PMS7003;64644;48.914;2.254;2023-08-17T10:33:44;20.25;18.75;13.25
75960;PMS7003;64644;48.914;2.254;2023-08-17T10:36:12;22.00;19.25;12.50
75960;PMS7003;64644;48.914;2.254;2023-08-17T10:38:38;17.00;17.00;14.50
75960;PMS7003;64644;48.914;2.254;2023-08-17T10:41:09;14.00;13.00;10.25
75960;PMS7003;64644;48.914;2.254;2023-08-17T10:46:21;16.50;16.25;11.00
75960;PMS7003;64644;48.914;2.254;2023-08-17T10:48:46;17.25;17.25;11.50
75960;PMS7003;64644;48.914;2.254;2023-08-17T10:51:12;16.75;16.75;13.25
75960;PMS7003;64644;48.914;2.254;2023-08-17T10:53:38;11.50;11.50;8.25
75960;PMS7003;64644;48.914;2.254;2023-08-17T10:56:08;20.50;19.50;12.50
75960;PMS7003;64644;48.914;2.254;2023-08-17T10:58:37;19.50;19.50;13.25
75960;PMS7003;64644;48.914;2.254;2023-08-17T11:01:02;20.75;18.25;12.50
75960;PMS7003;64644;48.914;2.254;2023-08-17T11:03:28;13.00;11.75;8.25
75960;PMS7003;64644;48.914;2.254;2023-08-17T11:05:54;15.75;14.75;11.00
75960;PMS7003;64644;48.914;2.254;2023-08-17T11:08:22;13.50;12.50;10.25
75960;PMS7003;64644;48.914;2.254;2023-08-17T11:11:02;16.25;14.25;10.50
75960;PMS7003;64644;48.914;2.254;2023-08-17T11:13:32;13.00;13.00;10.25
75960;PMS7003;64644;48.914;2.254;2023-08-17T11:15:59;17.75;15.25;10.75
75960;PMS7003;64644;48.914;2.254;2023-08-17T11:18:25;14.25;13.75;10.75
75960;PMS7003;64644;48.914;2.254;2023-08-17T11:20:51;15.00;14.50;11.00
75960;PMS7003;64644;48.914;2.254;2023-08-17T11:23:16;20.50;19.50;13.00
75960;PMS7003;64644;48.914;2.254;2023-08-17T11:25:43;20.00;15.25;12.75
75960;PMS7003;64644;48.914;2.254;2023-08-17T11:28:08;16.75;15.75;10.25
75960;PMS7003;64644;48.914;2.254;2023-08-17T11:30:34;13.25;13.25;11.25
75960;PMS7003;64644;48.914;2.254;2023-08-17T11:33:02;13.00;12.00;8.25
75960;PMS7003;64644;48.914;2.254;2023-08-17T11:35:28;15.75;15.00;11.25
75960;PMS7003;64644;48.914;2.254;2023-08-17T11:37:53;12.75;12.75;10.75
75960;PMS7003;64644;48.914;2.254;2023-08-17T11:40:19;10.00;9.50;6.25
75960;PMS7003;64644;48.914;2.254;2023-08-17T11:42:44;9.75;9.75;7.50
75960;PMS7003;64644;48.914;2.254;2023-08-17T11:45:10;8.75;8.50;6.00
75960;PMS7003;64644;48.914;2.254;2023-08-17T11:47:37;8.50;8.25;7.25
75960;PMS7003;64644;48.914;2.254;2023-08-17T11:50:05;10.25;10.25;7.50
75960;PMS7003;64644;48.914;2.254;2023-08-17T11:52:31;8.00;8.00;6.00
75960;PMS7003;64644;48.914;2.254;2023-08-17T11:55:02;7.00;7.00;6.00
75960;PMS7003;64644;48.914;2.254;2023-08-17T11:57:29;8.00;7.00;5.25
75960;PMS7003;64644;48.914;2.254;2023-08-17T11:59:55;8.25;8.25;7.00
75960;PMS7003;64644;48.914;2.254;2023-08-17T12:02:22;9.50;8.25;7.00
75960;PMS7003;64644;48.914;2.254;2023-08-17T12:04:48;9.75;9.75;8.00
75960;PMS7003;64644;48.914;2.254;2023-08-17T12:07:14;7.00;6.75;5.00
75960;PMS7003;64644;48.914;2.254;2023-08-17T12:09:41;7.75;7.75;6.00
75960;PMS7003;64644;48.914;2.254;2023-08-17T12:12:07;5.75;5.75;5.00
75960;PMS7003;64644;48.914;2.254;2023-08-17T12:14:33;9.25;8.75;6.00
75960;PMS7003;64644;48.914;2.254;2023-08-17T12:16:58;9.00;9.00;6.75
75960;PMS7003;64644;48.914;2.254;2023-08-17T12:19:26;9.00;9.00;7.00
75960;PMS7003;64644;48.914;2.254;2023-08-17T12:21:52;8.00;8.00;6.50
75960;PMS7003;64644;48.914;2.254;2023-08-17T12:24:17;12.75;12.75;9.00
75960;PMS7003;64644;48.914;2.254;2023-08-17T12:26:44;17.50;13.75;10.00
75960;PMS7003;64644;48.914;2.254;2023-08-17T12:29:13;11.00;11.00;8.75
75960;PMS7003;64644;48.914;2.254;2023-08-17T12:31:39;15.75;14.00;10.75
75960;PMS7003;64644;48.914;2.254;2023-08-17T12:34:05;18.50;15.75;11.50
75960;PMS7003;64644;48.914;2.254;2023-08-17T12:36:33;16.25;13.75;9.50
75960;PMS7003;64644;48.914;2.254;2023-08-17T12:39:00;14.00;14.00;10.00
75960;PMS7003;64644;48.914;2.254;2023-08-17T12:41:25;12.75;12.00;9.50
75960;PMS7003;64644;48.914;2.254;2023-08-17T12:43:51;12.25;12.25;8.00
75960;PMS7003;64644;48.914;2.254;2023-08-17T12:46:18;13.75;13.00;9.50
75960;PMS7003;64644;48.914;2.254;2023-08-17T12:48:44;12.25;12.25;9.00
75960;PMS7003;64644;48.914;2.254;2023-08-17T12:51:09;11.75;10.75;8.50
75960;PMS7003;64644;48.914;2.254;2023-08-17T12:53:35;12.75;11.75;8.00
75960;PMS7003;64644;48.914;2.254;2023-08-17T12:56:00;13.00;13.00;9.00
75960;PMS7003;64644;48.914;2.254;2023-08-17T12:58:25;13.00;13.00;9.75
75960;PMS7003;64644;48.914;2.254;2023-08-17T13:00:51;13.00;13.00;9.00
75960;PMS7003;64644;48.914;2.254;2023-08-17T13:03:19;1.00;1.00;0.00
75960;PMS7003;64644;48.914;2.254;2023-08-17T13:05:44;12.00;12.00;9.00
75960;PMS7003;64644;48.914;2.254;2023-08-17T13:08:09;15.25;15.25;10.00
75960;PMS7003;64644;48.914;2.254;2023-08-17T13:10:35;13.25;13.00;6.50
75960;PMS7003;64644;48.914;2.254;2023-08-17T13:13:01;10.75;10.75;8.00
75960;PMS7003;64644;48.914;2.254;2023-08-17T13:15:26;8.75;8.00;6.25
75960;PMS7003;64644;48.914;2.254;2023-08-17T13:17:52;11.50;11.50;7.00
75960;PMS7003;64644;48.914;2.254;2023-08-17T13:20:17;11.25;11.25;9.00
75960;PMS7003;64644;48.914;2.254;2023-08-17T13:22:43;12.75;12.75;9.25
75960;PMS7003;64644;48.914;2.254;2023-08-17T13:25:08;11.00;11.00;8.75
75960;PMS7003;64644;48.914;2.254;2023-08-17T13:27:33;9.25;9.25;8.00
75960;PMS7003;64644;48.914;2.254;2023-08-17T13:29:59;10.75;10.75;8.00
75960;PMS7003;64644;48.914;2.254;2023-08-17T13:32:25;13.50;13.25;9.75
75960;PMS7003;64644;48.914;2.254;2023-08-17T13:34:50;10.50;10.50;8.75
75960;PMS7003;64644;48.914;2.254;2023-08-17T13:37:16;13.75;12.75;9.75
75960;PMS7003;64644;48.914;2.254;2023-08-17T13:39:42;10.75;9.75;8.00
75960;PMS7003;64644;48.914;2.254;2023-08-17T13:42:08;14.00;13.00;8.75
75960;PMS7003;64644;48.914;2.254;2023-08-17T13:44:33;11.25;11.25;8.25
75960;PMS7003;64644;48.914;2.254;2023-08-17T13:46:58;13.00;13.00;9.25
75960;PMS7003;64644;48.914;2.254;2023-08-17T13:49:24;11.50;11.50;9.00
75960;PMS7003;64644;48.914;2.254;2023-08-17T13:51:49;8.25;8.00;6.75
75960;PMS7003;64644;48.914;2.254;2023-08-17T13:54:14;9.25;9.25;7.00
75960;PMS7003;64644;48.914;2.254;2023-08-17T13:56:40;12.75;11.50;8.00